Time,TemperatureF,DewpointF,PressureIn,WindDirection,WindDirectionDegrees,WindSpeedMPH,WindSpeedGustMPH,Humidity,HourlyPrecipIn,Conditions,Clouds,dailyrainin,SoftwareType,DateUTC
2013-09-29 00:00:00,78.1,78.1,29.85,SE,137,5.0,5.0,100,0.00,,,0.00,Wunderground v.1.15,2013-09-29 04:00:00,
2013-09-29 00:05:00,78.3,78.3,29.85,ESE,120,5.0,6.0,100,0.00,,,0.00,Wunderground v.1.15,2013-09-29 04:05:00,
2013-09-29 00:10:00,78.6,78.6,29.85,SE,133,5.0,6.0,100,0.00,,,0.00,Wunderground v.1.15,2013-09-29 04:10:00,
2013-09-29 00:20:00,79.6,79.6,29.85,ESE,109,4.0,6.0,100,0.00,,,0.00,Wunderground v.1.15,2013-09-29 04:20:00,
2013-09-29 00:25:00,79.6,79.6,29.85,ESE,110,4.0,6.0,100,0.00,,,0.00,Wunderground v.1.15,2013-09-29 04:25:00,
2013-09-29 00:30:00,79.6,79.6,29.84,ESE,120,4.0,4.0,100,0.00,,,0.00,Wunderground v.1.15,2013-09-29 04:30:00,
2013-09-29 00:35:00,79.6,79.6,29.84,ESE,119,3.0,4.0,100,0.00,,,0.00,Wunderground v.1.15,2013-09-29 04:35:00,
2013-09-29 00:40:00,79.9,79.9,29.84,ESE,110,3.0,6.0,100,0.00,,,0.00,Wunderground v.1.15,2013-09-29 04:40:00,
2013-09-29 00:45:00,80.1,80.1,29.84,SE,136,3.0,6.0,100,0.00,,,0.00,Wunderground v.1.15,2013-09-29 04:45:00,
2013-09-29 00:50:00,80.1,80.1,29.84,SE,134,3.0,3.0,100,0.00,,,0.00,Wunderground v.1.15,2013-09-29 04:50:00,
2013-09-29 00:55:00,80.7,80.7,29.84,SE,131,3.0,3.0,100,0.00,,,0.00,Wunderground v.1.15,2013-09-29 04:55:00,
2013-09-29 01:05:00,81.2,81.2,29.83,SE,124,2.0,3.0,100,0.00,,,0.00,Wunderground v.1.15,2013-09-29 05:05:00,
2013-09-29 01:10:00,81.4,81.4,29.83,ESE,119,0.0,2.0,100,0.00,,,0.00,Wunderground v.1.15,2013-09-29 05:10:00,
2013-09-29 01:25:00,81.2,81.2,29.83,SE,130,2.0,5.0,100,0.00,,,0.00,Wunderground v.1.15,2013-09-29 05:25:00,
2013-09-29 01:30:00,81.1,81.1,29.83,ESE,123,2.0,2.0,100,0.00,,,0.00,Wunderground v.1.15,2013-09-29 05:30:00,
2013-09-29 01:35:00,81.1,81.1,29.83,ESE,123,0.0,2.0,100,0.00,,,0.00,Wunderground v.1.15,2013-09-29 05:35:00,
2013-09-29 01:45:00,81.1,81.1,29.83,ESE,123,0.0,0.0,100,0.00,,,0.00,Wunderground v.1.15,2013-09-29 05:45:00,
2013-09-29 01:50:00,81.2,81.2,29.83,ESE,123,0.0,0.0,100,0.00,,,0.00,Wunderground v.1.15,2013-09-29 05:50:00,
2013-09-29 01:55:00,81.2,81.2,29.83,ESE,123,0.0,0.0,100,0.00,,,0.00,Wunderground v.1.15,2013-09-29 05:55:00,
2013-09-29 02:05:00,81.1,81.1,29.83,ESE,110,2.0,2.0,100,0.00,,,0.00,Wunderground v.1.15,2013-09-29 06:05:00,
2013-09-29 02:10:00,80.9,80.9,29.83,SE,144,3.0,3.0,100,0.00,,,0.00,Wunderground v.1.15,2013-09-29 06:10:00,
2013-09-29 02:15:00,80.5,80.5,29.82,ESE,107,3.0,6.0,100,0.00,,,0.00,Wunderground v.1.15,2013-09-29 06:15:00,
2013-09-29 02:25:00,80.5,80.5,29.82,ESE,110,0.0,1.0,100,0.00,,,0.00,Wunderground v.1.15,2013-09-29 06:25:00,
2013-09-29 02:30:00,80.5,80.5,29.81,SE,128,1.0,1.0,100,0.00,,,0.00,Wunderground v.1.15,2013-09-29 06:30:00,
2013-09-29 02:35:00,80.5,80.5,29.81,ESE,120,1.0,1.0,100,0.00,,,0.00,Wunderground v.1.15,2013-09-29 06:35:00,
2013-09-29 02:40:00,80.3,80.3,29.81,ESE,107,1.0,1.0,100,0.00,,,0.00,Wunderground v.1.15,2013-09-29 06:40:00,
2013-09-29 02:50:00,80.3,80.3,29.81,ESE,109,0.0,0.0,100,0.00,,,0.00,Wunderground v.1.15,2013-09-29 06:50:00,
2013-09-29 02:55:00,80.3,80.3,29.81,ESE,109,0.0,0.0,100,0.00,,,0.00,Wunderground v.1.15,2013-09-29 06:55:00,
2013-09-29 03:00:00,80.3,80.3,29.80,ESE,109,0.0,0.0,100,0.00,,,0.00,Wunderground v.1.15,2013-09-29 07:00:00,
2013-09-29 03:10:00,80.3,80.3,29.80,ESE,109,0.0,0.0,100,0.00,,,0.00,Wunderground v.1.15,2013-09-29 07:10:00,
2013-09-29 03:15:00,80.3,80.3,29.80,ESE,109,0.0,0.0,100,0.00,,,0.00,Wunderground v.1.15,2013-09-29 07:15:00,
2013-09-29 03:20:00,80.1,80.1,29.80,ESE,109,0.0,0.0,100,0.00,,,0.00,Wunderground v.1.15,2013-09-29 07:20:00,
2013-09-29 03:25:00,80.1,80.1,29.80,ESE,109,0.0,0.0,100,0.00,,,0.00,Wunderground v.1.15,2013-09-29 07:25:00,
2013-09-29 03:35:00,80.1,80.1,29.80,ESE,109,0.0,0.0,100,0.00,,,0.00,Wunderground v.1.15,2013-09-29 07:35:00,
2013-09-29 03:40:00,80.3,80.3,29.80,ESE,109,0.0,0.0,100,0.00,,,0.00,Wunderground v.1.15,2013-09-29 07:40:00,
2013-09-29 03:45:00,80.5,80.5,29.80,ESE,109,0.0,0.0,100,0.00,,,0.00,Wunderground v.1.15,2013-09-29 07:45:00,
2013-09-29 03:55:00,80.5,80.5,29.80,ESE,109,0.0,0.0,100,0.00,,,0.00,Wunderground v.1.15,2013-09-29 07:55:00,
2013-09-29 04:00:00,80.5,80.5,29.80,ESE,109,0.0,0.0,100,0.00,,,0.00,Wunderground v.1.15,2013-09-29 08:00:00,
2013-09-29 04:05:00,80.5,80.5,29.80,ESE,109,0.0,0.0,100,0.00,,,0.00,Wunderground v.1.15,2013-09-29 08:05:00,
2013-09-29 04:10:00,80.5,80.5,29.80,ESE,109,0.0,0.0,100,0.00,,,0.00,Wunderground v.1.15,2013-09-29 08:10:00,
2013-09-29 04:20:00,80.9,80.9,29.79,ESE,109,0.0,0.0,100,0.00,,,0.00,Wunderground v.1.15,2013-09-29 08:20:00,
2013-09-29 04:25:00,81.1,81.1,29.79,ESE,109,0.0,0.0,100,0.00,,,0.00,Wunderground v.1.15,2013-09-29 08:25:00,
2013-09-29 04:30:00,81.1,81.1,29.79,ESE,109,0.0,0.0,100,0.00,,,0.00,Wunderground v.1.15,2013-09-29 08:30:00,
2013-09-29 04:40:00,81.1,81.1,29.79,ESE,109,0.0,0.0,100,0.00,,,0.00,Wunderground v.1.15,2013-09-29 08:40:00,
2013-09-29 04:45:00,81.2,81.2,29.79,ESE,109,0.0,0.0,100,0.00,,,0.00,Wunderground v.1.15,2013-09-29 08:45:00,
2013-09-29 04:50:00,81.2,81.2,29.79,ESE,109,0.0,0.0,100,0.00,,,0.00,Wunderground v.1.15,2013-09-29 08:50:00,
2013-09-29 04:55:00,81.4,81.4,29.79,ESE,109,0.0,0.0,100,0.00,,,0.00,Wunderground v.1.15,2013-09-29 08:55:00,
2013-09-29 05:05:00,81.2,81.2,29.80,ESE,109,0.0,0.0,100,0.00,,,0.00,Wunderground v.1.15,2013-09-29 09:05:00,
2013-09-29 05:10:00,81.1,81.1,29.80,ESE,109,0.0,0.0,100,0.00,,,0.00,Wunderground v.1.15,2013-09-29 09:10:00,
2013-09-29 05:15:00,80.9,80.9,29.80,ESE,109,0.0,0.0,100,0.00,,,0.00,Wunderground v.1.15,2013-09-29 09:15:00,
2013-09-29 05:25:00,80.7,80.7,29.80,ENE,64,0.0,0.0,100,0.00,,,0.00,Wunderground v.1.15,2013-09-29 09:25:00,
2013-09-29 05:30:00,80.9,80.9,29.81,ENE,65,0.0,0.0,100,0.00,,,0.00,Wunderground v.1.15,2013-09-29 09:30:00,
2013-09-29 05:35:00,81.1,81.1,29.81,ENE,65,0.0,0.0,100,0.00,,,0.00,Wunderground v.1.15,2013-09-29 09:35:00,
2013-09-29 05:45:00,80.3,80.3,29.81,North,10,2.0,3.0,100,0.00,,,0.00,Wunderground v.1.15,2013-09-29 09:45:00,
2013-09-29 05:50:00,79.8,79.8,29.81,NNE,25,3.0,3.0,100,0.00,,,0.00,Wunderground v.1.15,2013-09-29 09:50:00,
2013-09-29 05:55:00,79.6,79.6,29.81,NNE,25,1.0,3.0,100,0.00,,,0.00,Wunderground v.1.15,2013-09-29 09:55:00,
2013-09-29 06:05:00,79.8,79.8,29.81,NNE,25,0.0,0.0,100,0.00,,,0.00,Wunderground v.1.15,2013-09-29 10:05:00,
2013-09-29 06:10:00,79.8,79.8,29.81,NNE,25,1.0,1.0,100,0.00,,,0.00,Wunderground v.1.15,2013-09-29 10:10:00,
2013-09-29 06:15:00,79.6,79.6,29.82,North,7,1.0,1.0,100,0.00,,,0.00,Wunderground v.1.15,2013-09-29 10:15:00,
2013-09-29 06:20:00,79.2,79.2,29.82,North,7,2.0,2.0,100,0.00,,,0.00,Wunderground v.1.15,2013-09-29 10:20:00,
2013-09-29 06:30:00,78.8,78.8,29.82,North,7,2.0,5.0,100,0.00,,,0.00,Wunderground v.1.15,2013-09-29 10:30:00,
2013-09-29 06:35:00,79.0,79.0,29.82,North,8,3.0,5.0,100,0.00,,,0.00,Wunderground v.1.15,2013-09-29 10:35:00,
2013-09-29 06:40:00,79.0,79.0,29.82,North,8,2.0,2.0,100,0.00,,,0.00,Wunderground v.1.15,2013-09-29 10:40:00,
2013-09-29 06:50:00,79.0,79.0,29.83,North,8,0.0,0.0,100,0.00,,,0.00,Wunderground v.1.15,2013-09-29 10:50:00,
2013-09-29 06:55:00,78.8,78.8,29.83,NNE,13,0.0,0.0,100,0.00,,,0.00,Wunderground v.1.15,2013-09-29 10:55:00,
2013-09-29 07:00:00,78.8,78.8,29.82,NNE,13,0.0,0.0,100,0.00,,,0.00,Wunderground v.1.15,2013-09-29 11:00:00,
2013-09-29 07:10:00,78.6,78.6,29.82,NNE,13,0.0,0.0,100,0.00,,,0.00,Wunderground v.1.15,2013-09-29 11:10:00,
2013-09-29 07:15:00,78.6,78.6,29.83,NNE,13,0.0,0.0,100,0.00,,,0.00,Wunderground v.1.15,2013-09-29 11:15:00,
2013-09-29 07:20:00,78.8,78.8,29.83,NNE,14,0.0,0.0,100,0.00,,,0.00,Wunderground v.1.15,2013-09-29 11:20:00,
2013-09-29 07:25:00,78.8,78.8,29.83,NNE,14,0.0,0.0,100,0.00,,,0.00,Wunderground v.1.15,2013-09-29 11:25:00,
2013-09-29 07:30:00,78.8,78.8,29.83,NNE,23,0.0,0.0,100,0.00,,,0.00,Wunderground v.1.15,2013-09-29 11:30:00,
2013-09-29 07:40:00,79.0,79.0,29.83,NNE,31,0.0,0.0,100,0.00,,,0.00,Wunderground v.1.15,2013-09-29 11:40:00,
2013-09-29 07:45:00,79.2,79.2,29.83,NE,55,0.0,2.0,100,0.00,,,0.00,Wunderground v.1.15,2013-09-29 11:45:00,
2013-09-29 07:50:00,79.0,79.0,29.83,NE,56,0.0,5.0,100,0.00,,,0.00,Wunderground v.1.15,2013-09-29 11:50:00,
2013-09-29 08:00:00,79.4,79.4,29.84,NE,55,1.0,1.0,100,0.00,,,0.00,Wunderground v.1.15,2013-09-29 12:00:00,
2013-09-29 08:05:00,79.6,79.6,29.84,NE,56,1.0,2.0,100,0.00,,,0.00,Wunderground v.1.15,2013-09-29 12:05:00,
2013-09-29 08:10:00,79.6,79.6,29.84,ENE,59,1.0,1.0,100,0.00,,,0.00,Wunderground v.1.15,2013-09-29 12:10:00,
2013-09-29 08:15:00,79.8,79.8,29.84,NE,56,1.0,1.0,100,0.00,,,0.00,Wunderground v.1.15,2013-09-29 12:15:00,
2013-09-29 08:25:00,80.7,80.7,29.84,NE,56,0.0,0.0,100,0.00,,,0.00,Wunderground v.1.15,2013-09-29 12:25:00,
2013-09-29 08:30:00,81.2,81.2,29.84,NE,45,0.0,0.0,100,0.00,,,0.00,Wunderground v.1.15,2013-09-29 12:30:00,
2013-09-29 08:35:00,81.4,81.4,29.84,NE,42,0.0,0.0,100,0.00,,,0.00,Wunderground v.1.15,2013-09-29 12:35:00,
2013-09-29 08:40:00,81.8,81.8,29.84,NE,42,0.0,0.0,100,0.00,,,0.00,Wunderground v.1.15,2013-09-29 12:40:00,
2013-09-29 08:50:00,82.4,82.4,29.85,NE,35,0.0,0.0,100,0.00,,,0.00,Wunderground v.1.15,2013-09-29 12:50:00,
2013-09-29 08:55:00,82.8,82.8,29.85,NE,35,0.0,0.0,100,0.00,,,0.00,Wunderground v.1.15,2013-09-29 12:55:00,
2013-09-29 09:00:00,83.0,83.0,29.85,NE,35,0.0,0.0,100,0.00,,,0.00,Wunderground v.1.15,2013-09-29 13:00:00,
2013-09-29 09:10:00,83.4,83.4,29.85,NE,35,1.0,1.0,100,0.00,,,0.00,Wunderground v.1.15,2013-09-29 13:10:00,
2013-09-29 09:15:00,83.6,83.6,29.85,NNE,16,1.0,1.0,100,0.00,,,0.00,Wunderground v.1.15,2013-09-29 13:15:00,
2013-09-29 09:20:00,83.6,83.6,29.85,NNE,16,1.0,5.0,100,0.00,,,0.00,Wunderground v.1.15,2013-09-29 13:20:00,
2013-09-29 09:25:00,83.4,83.4,29.85,NE,54,1.0,5.0,100,0.00,,,0.00,Wunderground v.1.15,2013-09-29 13:25:00,
2013-09-29 09:35:00,83.6,83.6,29.86,NNE,20,1.0,6.0,100,0.00,,,0.00,Wunderground v.1.15,2013-09-29 13:35:00,
2013-09-29 09:40:00,84.0,84.0,29.86,NNE,25,1.0,5.0,100,0.00,,,0.00,Wunderground v.1.15,2013-09-29 13:40:00,
2013-09-29 09:45:00,84.1,84.1,29.86,NNE,25,0.0,5.0,100,0.00,,,0.00,Wunderground v.1.15,2013-09-29 13:45:00,
2013-09-29 09:55:00,83.6,83.6,29.86,ENE,68,4.0,7.0,100,0.00,,,0.00,Wunderground v.1.15,2013-09-29 13:55:00,
2013-09-29 10:00:00,83.4,83.4,29.86,ENE,68,4.0,4.0,100,0.00,,,0.00,Wunderground v.1.15,2013-09-29 14:00:00,
2013-09-29 10:05:00,83.8,83.8,29.86,ENE,72,3.0,4.0,100,0.00,,,0.00,Wunderground v.1.15,2013-09-29 14:05:00,
2013-09-29 10:10:00,83.6,83.6,29.86,ENE,68,3.0,7.0,100,0.00,,,0.00,Wunderground v.1.15,2013-09-29 14:10:00,
2013-09-29 10:20:00,83.8,83.8,29.86,ENE,64,4.0,7.0,100,0.00,,,0.00,Wunderground v.1.15,2013-09-29 14:20:00,
2013-09-29 10:25:00,83.6,83.6,29.86,ENE,65,4.0,7.0,100,0.00,,,0.00,Wunderground v.1.15,2013-09-29 14:25:00,
2013-09-29 10:30:00,83.8,83.8,29.86,NE,52,4.0,5.0,100,0.00,,,0.00,Wunderground v.1.15,2013-09-29 14:30:00,
2013-09-29 10:40:00,84.7,84.7,29.86,ENE,65,3.0,8.0,100,0.00,,,0.00,Wunderground v.1.15,2013-09-29 14:40:00,
2013-09-29 10:45:00,84.1,84.1,29.86,NE,45,3.0,8.0,100,0.00,,,0.00,Wunderground v.1.15,2013-09-29 14:45:00,
2013-09-29 10:50:00,84.1,84.1,29.86,East,100,4.0,4.0,100,0.00,,,0.00,Wunderground v.1.15,2013-09-29 14:50:00,
2013-09-29 11:00:00,84.5,84.5,29.86,ENE,58,2.0,2.0,100,0.00,,,0.00,Wunderground v.1.15,2013-09-29 15:00:00,
2013-09-29 11:05:00,84.7,84.7,29.86,ENE,62,1.0,2.0,100,0.00,,,0.00,Wunderground v.1.15,2013-09-29 15:05:00,
2013-09-29 11:10:00,84.7,84.7,29.86,NE,55,2.0,2.0,100,0.00,,,0.00,Wunderground v.1.15,2013-09-29 15:10:00,
2013-09-29 11:15:00,84.3,84.3,29.86,NE,55,3.0,3.0,100,0.00,,,0.00,Wunderground v.1.15,2013-09-29 15:15:00,
2013-09-29 11:25:00,84.3,84.3,29.86,East,99,3.0,3.0,100,0.00,,,0.00,Wunderground v.1.15,2013-09-29 15:25:00,
2013-09-29 11:30:00,84.5,84.5,29.86,East,82,3.0,3.0,100,0.00,,,0.00,Wunderground v.1.15,2013-09-29 15:30:00,
2013-09-29 11:35:00,84.9,84.9,29.86,East,88,1.0,3.0,100,0.00,,,0.00,Wunderground v.1.15,2013-09-29 15:35:00,
2013-09-29 11:45:00,85.5,85.5,29.86,ENE,73,2.0,2.0,100,0.00,,,0.00,Wunderground v.1.15,2013-09-29 15:45:00,
2013-09-29 11:50:00,85.7,85.7,29.86,East,92,2.0,3.0,100,0.00,,,0.00,Wunderground v.1.15,2013-09-29 15:50:00,
2013-09-29 11:55:00,85.5,85.5,29.86,ENE,71,2.0,3.0,100,0.00,,,0.00,Wunderground v.1.15,2013-09-29 15:55:00,
2013-09-29 12:05:00,85.9,85.9,29.85,ENE,72,1.0,2.0,100,0.00,,,0.00,Wunderground v.1.15,2013-09-29 16:05:00,
2013-09-29 12:10:00,86.3,86.3,29.85,ENE,68,1.0,5.0,100,0.00,,,0.00,Wunderground v.1.15,2013-09-29 16:10:00,
2013-09-29 12:15:00,85.7,85.7,29.85,NE,55,2.0,6.0,100,0.00,,,0.00,Wunderground v.1.15,2013-09-29 16:15:00,
2013-09-29 12:25:00,85.3,85.3,29.85,NE,42,3.0,4.0,100,0.00,,,0.00,Wunderground v.1.15,2013-09-29 16:25:00,
2013-09-29 12:30:00,85.5,85.5,29.85,ENE,62,2.0,2.0,100,0.00,,,0.00,Wunderground v.1.15,2013-09-29 16:30:00,
2013-09-29 12:35:00,85.9,85.9,29.85,East,96,2.0,2.0,100,0.00,,,0.00,Wunderground v.1.15,2013-09-29 16:35:00,
2013-09-29 12:45:00,85.9,85.9,29.84,East,96,2.0,4.0,100,0.00,,,0.00,Wunderground v.1.15,2013-09-29 16:45:00,
2013-09-29 12:50:00,85.5,85.5,29.84,ENE,66,3.0,6.0,100,0.00,,,0.00,Wunderground v.1.15,2013-09-29 16:50:00,
2013-09-29 12:55:00,85.5,85.5,29.84,ESE,104,4.0,6.0,100,0.00,,,0.00,Wunderground v.1.15,2013-09-29 16:55:00,
2013-09-29 13:00:00,86.3,86.3,29.84,East,79,2.0,5.0,100,0.00,,,0.00,Wunderground v.1.15,2013-09-29 17:00:00,
2013-09-29 13:10:00,86.1,86.1,29.84,ENE,61,3.0,3.0,100,0.00,,,0.00,Wunderground v.1.15,2013-09-29 17:10:00,
2013-09-29 13:15:00,86.3,86.3,29.84,East,89,3.0,3.0,100,0.00,,,0.00,Wunderground v.1.15,2013-09-29 17:15:00,
2013-09-29 13:20:00,86.1,86.1,29.84,East,95,2.0,4.0,100,0.00,,,0.00,Wunderground v.1.15,2013-09-29 17:20:00,
2013-09-29 13:25:00,86.1,86.1,29.84,East,79,2.0,4.0,100,0.00,,,0.00,Wunderground v.1.15,2013-09-29 17:25:00,
2013-09-29 13:35:00,85.5,85.5,29.83,East,88,4.0,4.0,100,0.00,,,0.00,Wunderground v.1.15,2013-09-29 17:35:00,
2013-09-29 13:40:00,85.3,85.3,29.83,ENE,71,3.0,3.0,100,0.00,,,0.00,Wunderground v.1.15,2013-09-29 17:40:00,
2013-09-29 13:45:00,85.5,85.5,29.83,East,97,3.0,4.0,100,0.00,,,0.00,Wunderground v.1.15,2013-09-29 17:45:00,
2013-09-29 13:55:00,85.5,85.5,29.83,East,79,3.0,7.0,100,0.00,,,0.00,Wunderground v.1.15,2013-09-29 17:55:00,
2013-09-29 14:00:00,86.1,86.1,29.82,ENE,76,2.0,6.0,100,0.00,,,0.00,Wunderground v.1.15,2013-09-29 18:00:00,
2013-09-29 14:05:00,85.9,85.9,29.82,East,80,2.0,6.0,100,0.00,,,0.00,Wunderground v.1.15,2013-09-29 18:05:00,
2013-09-29 14:15:00,85.7,85.7,29.82,ENE,76,2.0,6.0,100,0.00,,,0.00,Wunderground v.1.15,2013-09-29 18:15:00,
2013-09-29 14:20:00,85.7,85.7,29.82,East,95,2.0,3.0,100,0.00,,,0.00,Wunderground v.1.15,2013-09-29 18:20:00,
2013-09-29 14:25:00,85.9,85.9,29.82,NE,34,2.0,3.0,100,0.00,,,0.00,Wunderground v.1.15,2013-09-29 18:25:00,
2013-09-29 14:35:00,85.9,85.9,29.81,ESE,121,2.0,3.0,100,0.00,,,0.00,Wunderground v.1.15,2013-09-29 18:35:00,
2013-09-29 14:40:00,86.3,86.3,29.81,ENE,61,2.0,2.0,100,0.00,,,0.00,Wunderground v.1.15,2013-09-29 18:40:00,
2013-09-29 14:55:00,84.9,84.9,29.80,NE,56,4.0,7.0,100,0.00,,,0.00,Wunderground v.1.15,2013-09-29 18:55:00,
2013-09-29 15:00:00,85.3,85.3,29.80,NE,48,4.0,7.0,100,0.00,,,0.00,Wunderground v.1.15,2013-09-29 19:00:00,
2013-09-29 15:10:00,85.7,85.7,29.80,ENE,72,3.0,3.0,100,0.00,,,0.00,Wunderground v.1.15,2013-09-29 19:10:00,
2013-09-29 15:15:00,85.5,85.5,29.80,East,92,3.0,3.0,100,0.00,,,0.00,Wunderground v.1.15,2013-09-29 19:15:00,
2013-09-29 15:20:00,85.7,85.7,29.80,NE,51,2.0,2.0,100,0.00,,,0.00,Wunderground v.1.15,2013-09-29 19:20:00,
2013-09-29 15:30:00,85.1,85.1,29.79,East,93,2.0,2.0,100,0.00,,,0.00,Wunderground v.1.15,2013-09-29 19:30:00,
2013-09-29 15:35:00,85.3,85.3,29.79,East,85,2.0,3.0,100,0.00,,,0.00,Wunderground v.1.15,2013-09-29 19:35:00,
2013-09-29 15:40:00,85.3,85.3,29.79,ESE,116,2.0,2.0,100,0.00,,,0.00,Wunderground v.1.15,2013-09-29 19:40:00,
2013-09-29 15:50:00,85.3,85.3,29.78,ENE,61,2.0,5.0,100,0.00,,,0.00,Wunderground v.1.15,2013-09-29 19:50:00,
2013-09-29 15:55:00,85.3,85.3,29.78,East,82,2.0,5.0,100,0.00,,,0.00,Wunderground v.1.15,2013-09-29 19:55:00,
2013-09-29 16:00:00,85.1,85.1,29.78,ENE,75,2.0,2.0,100,0.00,,,0.00,Wunderground v.1.15,2013-09-29 20:00:00,
2013-09-29 16:05:00,85.3,85.3,29.78,ENE,73,2.0,2.0,100,0.00,,,0.00,Wunderground v.1.15,2013-09-29 20:05:00,
2013-09-29 16:10:00,84.9,84.9,29.78,ESE,107,2.0,2.0,100,0.00,,,0.00,Wunderground v.1.15,2013-09-29 20:10:00,
2013-09-29 16:20:00,85.1,85.1,29.78,East,88,1.0,4.0,100,0.00,,,0.00,Wunderground v.1.15,2013-09-29 20:20:00,
2013-09-29 16:25:00,84.9,84.9,29.78,East,100,2.0,4.0,100,0.00,,,0.00,Wunderground v.1.15,2013-09-29 20:25:00,
2013-09-29 16:30:00,85.3,85.3,29.78,East,83,1.0,1.0,100,0.00,,,0.00,Wunderground v.1.15,2013-09-29 20:30:00,
2013-09-29 16:40:00,85.7,85.7,29.78,ENE,71,1.0,1.0,100,0.00,,,0.00,Wunderground v.1.15,2013-09-29 20:40:00,
2013-09-29 16:45:00,85.9,85.9,29.78,ESE,112,1.0,1.0,100,0.00,,,0.00,Wunderground v.1.15,2013-09-29 20:45:00,
2013-09-29 16:55:00,85.3,85.3,29.78,East,86,2.0,3.0,100,0.00,,,0.00,Wunderground v.1.15,2013-09-29 20:55:00,
2013-09-29 17:00:00,84.7,84.7,29.78,ENE,65,2.0,6.0,100,0.00,,,0.00,Wunderground v.1.15,2013-09-29 21:00:00,
2013-09-29 17:05:00,84.3,84.3,29.78,ENE,78,3.0,6.0,100,0.00,,,0.00,Wunderground v.1.15,2013-09-29 21:05:00,
2013-09-29 17:15:00,84.5,84.5,29.78,ENE,75,2.0,6.0,100,0.00,,,0.00,Wunderground v.1.15,2013-09-29 21:15:00,
2013-09-29 17:20:00,84.3,84.3,29.78,ENE,72,4.0,6.0,100,0.00,,,0.00,Wunderground v.1.15,2013-09-29 21:20:00,
2013-09-29 17:25:00,84.0,84.0,29.78,ENE,64,4.0,6.0,100,0.00,,,0.00,Wunderground v.1.15,2013-09-29 21:25:00,
2013-09-29 17:35:00,84.5,84.5,29.78,East,82,2.0,6.0,100,0.00,,,0.00,Wunderground v.1.15,2013-09-29 21:35:00,
2013-09-29 17:40:00,84.0,84.0,29.78,East,79,2.0,2.0,100,0.00,,,0.00,Wunderground v.1.15,2013-09-29 21:40:00,
2013-09-29 17:45:00,84.0,84.0,29.78,ENE,64,3.0,6.0,100,0.00,,,0.00,Wunderground v.1.15,2013-09-29 21:45:00,
2013-09-29 17:55:00,84.1,84.1,29.78,NE,35,2.0,3.0,100,0.00,,,0.00,Wunderground v.1.15,2013-09-29 21:55:00,
2013-09-29 18:00:00,84.3,84.3,29.78,ENE,72,2.0,6.0,100,0.00,,,0.00,Wunderground v.1.15,2013-09-29 22:00:00,
2013-09-29 18:05:00,84.1,84.1,29.78,NE,40,3.0,6.0,100,0.00,,,0.00,Wunderground v.1.15,2013-09-29 22:05:00,
2013-09-29 18:15:00,84.1,84.1,29.79,NE,48,3.0,5.0,100,0.00,,,0.00,Wunderground v.1.15,2013-09-29 22:15:00,
2013-09-29 18:20:00,84.3,84.3,29.79,ENE,59,2.0,6.0,100,0.00,,,0.00,Wunderground v.1.15,2013-09-29 22:20:00,
2013-09-29 18:25:00,84.3,84.3,29.79,NE,40,1.0,6.0,100,0.00,,,0.00,Wunderground v.1.15,2013-09-29 22:25:00,
2013-09-29 18:35:00,84.3,84.3,29.79,NE,54,1.0,1.0,100,0.00,,,0.00,Wunderground v.1.15,2013-09-29 22:35:00,
2013-09-29 18:40:00,84.1,84.1,29.79,ENE,61,1.0,1.0,100,0.00,,,0.00,Wunderground v.1.15,2013-09-29 22:40:00,
2013-09-29 18:45:00,84.0,84.0,29.80,ENE,75,2.0,2.0,100,0.00,,,0.00,Wunderground v.1.15,2013-09-29 22:45:00,
2013-09-29 18:55:00,83.6,83.6,29.80,ENE,58,2.0,2.0,100,0.00,,,0.00,Wunderground v.1.15,2013-09-29 22:55:00,
2013-09-29 19:00:00,83.4,83.4,29.80,ENE,72,1.0,1.0,100,0.00,,,0.00,Wunderground v.1.15,2013-09-29 23:00:00,
2013-09-29 19:05:00,83.2,83.2,29.80,ENE,62,2.0,2.0,100,0.00,,,0.00,Wunderground v.1.15,2013-09-29 23:05:00,
2013-09-29 19:15:00,83.0,83.0,29.81,NE,41,4.0,4.0,100,0.00,,,0.00,Wunderground v.1.15,2013-09-29 23:15:00,
2013-09-29 19:20:00,82.4,82.4,29.81,ENE,62,3.0,3.0,100,0.00,,,0.00,Wunderground v.1.15,2013-09-29 23:20:00,
2013-09-29 19:25:00,82.0,82.0,29.81,NNE,17,3.0,3.0,100,0.00,,,0.00,Wunderground v.1.15,2013-09-29 23:25:00,
2013-09-29 19:30:00,81.8,81.8,29.81,NE,42,3.0,6.0,100,0.00,,,0.00,Wunderground v.1.15,2013-09-29 23:30:00,
2013-09-29 19:35:00,81.8,81.8,29.81,NE,48,2.0,6.0,100,0.00,,,0.00,Wunderground v.1.15,2013-09-29 23:35:00,
2013-09-29 19:45:00,81.8,81.8,29.82,NE,52,1.0,5.0,100,0.00,,,0.00,Wunderground v.1.15,2013-09-29 23:45:00,
2013-09-29 19:50:00,81.8,81.8,29.82,NE,52,1.0,1.0,100,0.00,,,0.00,Wunderground v.1.15,2013-09-29 23:50:00,
2013-09-29 19:55:00,82.0,82.0,29.82,ENE,78,0.0,1.0,100,0.00,,,0.00,Wunderground v.1.15,2013-09-29 23:55:00,
2013-09-29 20:05:00,81.8,81.8,29.82,NE,38,1.0,4.0,100,0.00,,,0.00,Wunderground v.1.15,2013-09-30 00:05:00,
2013-09-29 20:10:00,81.8,81.8,29.82,NE,48,0.0,0.0,100,0.00,,,0.00,Wunderground v.1.15,2013-09-30 00:10:00,
2013-09-29 20:15:00,81.6,81.6,29.82,ENE,76,1.0,7.0,100,0.00,,,0.00,Wunderground v.1.15,2013-09-30 00:15:00,
2013-09-29 20:20:00,82.2,82.2,29.82,ENE,78,3.0,3.0,100,0.00,,,0.00,Wunderground v.1.15,2013-09-30 00:20:00,
2013-09-29 20:30:00,82.4,82.4,29.82,ENE,59,4.0,4.0,100,0.00,,,0.00,Wunderground v.1.15,2013-09-30 00:30:00,
2013-09-29 20:35:00,82.6,82.6,29.82,ENE,62,3.0,5.0,100,0.00,,,0.00,Wunderground v.1.15,2013-09-30 00:35:00,
2013-09-29 20:45:00,82.6,82.6,29.83,ENE,68,2.0,6.0,100,0.00,,,0.00,Wunderground v.1.15,2013-09-30 00:45:00,
2013-09-29 20:50:00,82.6,82.6,29.83,ESE,103,3.0,3.0,100,0.00,,,0.00,Wunderground v.1.15,2013-09-30 00:50:00,
2013-09-29 20:55:00,82.6,82.6,29.83,ENE,65,3.0,3.0,100,0.00,,,0.00,Wunderground v.1.15,2013-09-30 00:55:00,
2013-09-29 21:05:00,82.8,82.8,29.83,NE,48,4.0,6.0,100,0.00,,,0.00,Wunderground v.1.15,2013-09-30 01:05:00,
2013-09-29 21:10:00,82.6,82.6,29.83,ENE,68,4.0,8.0,100,0.00,,,0.00,Wunderground v.1.15,2013-09-30 01:10:00,
2013-09-29 21:15:00,82.6,82.6,29.83,East,80,3.0,8.0,100,0.00,,,0.00,Wunderground v.1.15,2013-09-30 01:15:00,
2013-09-29 21:25:00,82.6,82.6,29.83,ENE,66,5.0,7.0,100,0.00,,,0.00,Wunderground v.1.15,2013-09-30 01:25:00,
2013-09-29 21:30:00,82.0,82.0,29.84,NE,55,5.0,5.0,100,0.00,,,0.00,Wunderground v.1.15,2013-09-30 01:30:00,
2013-09-29 21:35:00,81.4,81.4,29.84,NE,41,5.0,5.0,100,0.00,,,0.00,Wunderground v.1.15,2013-09-30 01:35:00,
2013-09-29 21:40:00,81.2,81.2,29.84,NE,52,5.0,5.0,100,0.00,,,0.00,Wunderground v.1.15,2013-09-30 01:40:00,
2013-09-29 21:50:00,81.1,81.1,29.84,NE,51,5.0,7.0,100,0.00,,,0.00,Wunderground v.1.15,2013-09-30 01:50:00,
2013-09-29 21:55:00,80.9,80.9,29.84,ENE,66,6.0,7.0,100,0.00,,,0.00,Wunderground v.1.15,2013-09-30 01:55:00,
2013-09-29 22:05:00,81.2,81.2,29.85,NE,49,8.0,10.0,100,0.00,,,0.00,Wunderground v.1.15,2013-09-30 02:05:00,
2013-09-29 22:15:00,81.2,81.2,29.85,NE,45,8.0,9.0,100,0.00,,,0.00,Wunderground v.1.15,2013-09-30 02:15:00,
2013-09-29 22:20:00,81.1,81.1,29.85,ENE,66,8.0,8.0,100,0.00,,,0.00,Wunderground v.1.15,2013-09-30 02:20:00,
2013-09-29 22:25:00,80.7,80.7,29.85,NE,51,7.0,10.0,100,0.00,,,0.00,Wunderground v.1.15,2013-09-30 02:25:00,
2013-09-29 22:35:00,80.9,80.9,29.85,NE,49,9.0,12.0,100,0.00,,,0.00,Wunderground v.1.15,2013-09-30 02:35:00,
2013-09-29 22:45:00,80.9,80.9,29.85,NE,56,8.0,8.0,100,0.00,,,0.00,Wunderground v.1.15,2013-09-30 02:45:00,
2013-09-29 22:50:00,81.2,81.2,29.85,ENE,75,8.0,8.0,100,0.00,,,0.00,Wunderground v.1.15,2013-09-30 02:50:00,
2013-09-29 22:55:00,81.2,81.2,29.85,ESE,102,7.0,8.0,100,0.00,,,0.00,Wunderground v.1.15,2013-09-30 02:55:00,
2013-09-29 23:05:00,81.2,81.2,29.84,ENE,78,4.0,6.0,100,0.00,,,0.00,Wunderground v.1.15,2013-09-30 03:05:00,
2013-09-29 23:10:00,81.6,81.6,29.84,NNE,25,4.0,9.0,100,0.00,,,0.00,Wunderground v.1.15,2013-09-30 03:10:00,
2013-09-29 23:20:00,81.8,81.8,29.84,ENE,72,6.0,8.0,100,0.00,,,0.00,Wunderground v.1.15,2013-09-30 03:20:00,
2013-09-29 23:25:00,81.8,81.8,29.84,ENE,65,6.0,8.0,100,0.00,,,0.00,Wunderground v.1.15,2013-09-30 03:25:00,
2013-09-29 23:30:00,82.0,82.0,29.85,ENE,68,6.0,6.0,100,0.00,,,0.00,Wunderground v.1.15,2013-09-30 03:30:00,
2013-09-29 23:40:00,81.8,81.8,29.85,East,100,5.0,5.0,100,0.00,,,0.00,Wunderground v.1.15,2013-09-30 03:40:00,
2013-09-29 23:45:00,82.0,82.0,29.85,NE,54,3.0,5.0,100,0.00,,,0.00,Wunderground v.1.15,2013-09-30 03:45:00,
2013-09-29 23:50:00,82.0,82.0,29.85,East,100,4.0,4.0,100,0.00,,,0.00,Wunderground v.1.15,2013-09-30 03:50:00,